Time;durP1;ratioP1;P1;durP2;ratioP2;P2;SDS_P1;SDS_P2;PMS_P1;PMS_P2;Temp;Humidity;BMP_temperature;BMP_pressure;BME280_temperature;BME280_humidity;BME280_pressure;Samples;Min_cycle;Max_cycle;Signal;HPM_P1;HPM_P2
2023/07/19 00:00:54;;;;;;;8.85;8.05;;;16.60;99.90;;;;;;5013000;28;20547;-90
2023/07/19 00:03:20;;;;;;;7.93;7.13;;;16.50;99.90;;;;;;5012590;28;20404;-91
2023/07/19 00:05:46;;;;;;;7.30;6.60;;;16.50;99.90;;;;;;5012855;28;20421;-89
2023/07/19 00:08:12;;;;;;;8.13;7.13;;;16.70;99.90;;;;;;5012594;28;20889;-90
2023/07/19 00:10:37;;;;;;;9.65;8.75;;;16.50;99.90;;;;;;5012948;28;20471;-90
2023/07/19 00:13:04;;;;;;;9.73;8.82;;;16.60;99.90;;;;;;5012133;28;20436;-91
2023/07/19 00:15:30;;;;;;;7.32;6.63;;;16.50;99.90;;;;;;5014653;28;20405;-89
2023/07/19 00:17:55;;;;;;;8.90;8.10;;;16.50;99.90;;;;;;5016785;28;20408;-90
2023/07/19 00:20:21;;;;;;;10.00;9.00;;;16.50;99.90;;;;;;5016354;28;20415;-90
2023/07/19 00:22:47;;;;;;;8.98;8.18;;;16.80;99.90;;;;;;5016454;28;20405;-90
2023/07/19 00:25:12;;;;;;;9.10;8.20;;;16.90;99.90;;;;;;5016245;28;20432;-90
2023/07/19 00:27:38;;;;;;;9.57;8.60;;;16.80;99.90;;;;;;5016522;28;20771;-90
2023/07/19 00:30:04;;;;;;;9.40;8.50;;;16.10;99.90;;;;;;5015860;28;20794;-91
2023/07/19 00:32:30;;;;;;;8.50;7.70;;;16.30;99.90;;;;;;5016528;28;20420;-90
2023/07/19 00:34:56;;;;;;;8.68;7.60;;;16.60;99.90;;;;;;5015556;28;20402;-90
2023/07/19 00:37:21;;;;;;;8.83;7.93;;;16.40;99.90;;;;;;5016355;28;20433;-91
2023/07/19 00:39:47;;;;;;;8.32;7.47;;;16.40;99.90;;;;;;5015325;28;20493;-91
2023/07/19 00:42:13;;;;;;;8.43;7.57;;;16.30;99.90;;;;;;4996288;28;20509;-91
2023/07/19 00:44:38;;;;;;;9.50;8.60;;;16.30;99.90;;;;;;4996679;28;20413;-91
2023/07/19 00:47:04;;;;;;;11.55;9.40;;;16.70;99.90;;;;;;4995776;28;20403;-91
2023/07/19 00:49:32;;;;;;;7.90;7.20;;;16.30;99.90;;;;;;4996612;28;20394;-90
2023/07/19 00:52:02;;;;;;;9.40;8.43;;;16.30;99.90;;;;;;4995759;28;20414;-90
2023/07/19 00:54:29;;;;;;;10.10;9.10;;;16.40;99.90;;;;;;4996078;28;20454;-91
2023/07/19 00:56:56;;;;;;;10.27;8.13;;;16.50;99.90;;;;;;4996106;28;21005;-91
2023/07/19 00:59:23;;;;;;;10.13;9.13;;;16.40;99.90;;;;;;4995708;28;20486;-91
2023/07/19 01:01:50;;;;;;;10.15;9.25;;;16.50;99.90;;;;;;4996206;28;20403;-90
2023/07/19 01:04:16;;;;;;;11.23;10.10;;;16.50;99.90;;;;;;4995620;28;20890;-91
2023/07/19 01:06:43;;;;;;;11.60;10.50;;;16.60;99.90;;;;;;4996509;28;20414;-90
2023/07/19 01:09:13;;;;;;;11.80;10.57;;;16.90;99.90;;;;;;4995560;28;20403;-91
2023/07/19 01:11:40;;;;;;;11.05;10.05;;;16.40;99.90;;;;;;4996030;28;20454;-90
2023/07/19 01:14:05;;;;;;;10.00;9.00;;;16.40;99.90;;;;;;4995724;28;20438;-90
2023/07/19 01:16:31;;;;;;;11.10;10.10;;;16.40;99.90;;;;;;4995798;28;20446;-90
2023/07/19 01:18:57;;;;;;;9.70;8.80;;;16.40;99.90;;;;;;4996579;28;20419;-92
2023/07/19 01:21:23;;;;;;;9.60;8.70;;;16.40;99.90;;;;;;4995455;28;20782;-90
2023/07/19 01:23:50;;;;;;;10.57;9.57;;;16.70;99.90;;;;;;4996163;28;20404;-90
2023/07/19 01:26:16;;;;;;;10.30;9.30;;;16.40;99.90;;;;;;4994801;28;20453;-90
2023/07/19 01:28:42;;;;;;;10.15;9.18;;;16.40;99.90;;;;;;4995649;28;20407;-90
2023/07/19 01:31:11;;;;;;;10.97;9.87;;;16.40;99.90;;;;;;4995141;28;20422;-90
2023/07/19 01:33:37;;;;;;;10.27;9.38;;;16.40;99.90;;;;;;4995915;28;20413;-91
2023/07/19 01:36:03;;;;;;;10.60;9.60;;;16.30;99.90;;;;;;4996006;28;20434;-91
2023/07/19 01:38:29;;;;;;;11.90;10.67;;;16.40;99.90;;;;;;4995789;28;20417;-90
2023/07/19 01:40:54;;;;;;;12.70;11.50;;;16.60;99.90;;;;;;4995141;28;20899;-90
2023/07/19 01:43:20;;;;;;;13.63;11.38;;;16.40;99.90;;;;;;4993800;28;20439;-91
2023/07/19 01:45:46;;;;;;;11.03;10.03;;;16.20;99.90;;;;;;4994498;28;20407;-91
2023/07/19 01:48:11;;;;;;;9.88;8.98;;;16.20;99.90;;;;;;4993836;28;20829;-91
2023/07/19 01:50:37;;;;;;;10.43;9.40;;;16.70;99.90;;;;;;4995683;28;20878;-91
2023/07/19 01:53:02;;;;;;;10.73;9.83;;;16.50;99.90;;;;;;4995485;28;20414;-90
2023/07/19 01:55:28;;;;;;;11.38;10.20;;;16.30;99.90;;;;;;4994912;28;20461;-90
2023/07/19 01:57:54;;;;;;;11.73;10.10;;;16.40;99.90;;;;;;4995622;28;20806;-90
2023/07/19 02:00:19;;;;;;;14.27;12.38;;;16.30;99.90;;;;;;4994765;28;20407;-90
2023/07/19 02:02:45;;;;;;;14.30;12.90;;;16.30;99.90;;;;;;4995709;28;20419;-91
2023/07/19 02:05:11;;;;;;;13.10;11.90;;;16.40;99.90;;;;;;4994882;28;20440;-91
2023/07/19 02:07:36;;;;;;;12.18;11.07;;;15.60;99.90;;;;;;4995340;28;20494;-91
2023/07/19 02:10:03;;;;;;;14.63;13.33;;;16.40;99.90;;;;;;4994821;28;20403;-91
2023/07/19 02:12:28;;;;;;;13.55;12.35;;;16.00;99.90;;;;;;4995613;28;20878;-91
2023/07/19 02:14:54;;;;;;;13.27;12.07;;;16.10;99.90;;;;;;4995510;28;20494;-90
2023/07/19 02:17:21;;;;;;;12.65;11.55;;;15.90;99.90;;;;;;4994974;28;20427;-90
2023/07/19 02:19:47;;;;;;;13.25;11.05;;;16.10;99.90;;;;;;4995439;28;20408;-90
2023/07/19 02:22:13;;;;;;;12.60;11.40;;;16.10;99.90;;;;;;4994304;28;20403;-91
2023/07/19 02:24:39;;;;;;;12.38;11.18;;;16.00;99.90;;;;;;4994760;28;21142;-91
2023/07/19 02:27:04;;;;;;;11.77;10.77;;;16.00;99.90;;;;;;4994408;28;20403;-90
2023/07/19 02:29:30;;;;;;;13.63;12.32;;;16.00;99.90;;;;;;4994926;28;20890;-90
2023/07/19 02:31:56;;;;;;;12.77;11.47;;;16.00;99.90;;;;;;4995508;28;20443;-91
2023/07/19 02:34:22;;;;;;;12.23;11.02;;;16.00;99.90;;;;;;4994307;28;20933;-91
2023/07/19 02:36:49;;;;;;;12.45;11.25;;;16.40;99.90;;;;;;4994871;28;20441;-91
2023/07/19 02:39:14;;;;;;;12.10;10.90;;;16.50;99.90;;;;;;4993194;28;20407;-91
2023/07/19 02:41:40;;;;;;;12.40;11.20;;;16.50;99.90;;;;;;4994229;28;20409;-92
2023/07/19 02:44:06;;;;;;;11.40;10.38;;;16.10;99.90;;;;;;4994097;28;20759;-90
2023/07/19 02:46:31;;;;;;;12.00;10.90;;;16.40;99.90;;;;;;4994544;28;20468;-91
2023/07/19 02:48:57;;;;;;;11.70;10.50;;;16.40;99.90;;;;;;4994141;28;20466;-90
2023/07/19 02:51:23;;;;;;;12.27;11.27;;;16.40;99.90;;;;;;4994462;28;20419;-90
2023/07/19 02:53:49;;;;;;;11.98;10.90;;;16.10;99.90;;;;;;4994614;28;20411;-91
2023/07/19 02:56:14;;;;;;;12.27;11.18;;;16.30;99.90;;;;;;4993759;28;20470;-92
2023/07/19 02:58:41;;;;;;;12.20;10.80;;;16.60;99.90;;;;;;4994668;28;20447;-90
2023/07/19 03:01:06;;;;;;;13.10;10.30;;;16.30;99.90;;;;;;4993871;28;20411;-90
2023/07/19 03:03:32;;;;;;;11.90;10.70;;;16.50;99.90;;;;;;4994534;28;20949;-90
2023/07/19 03:05:58;;;;;;;11.57;10.57;;;16.30;99.90;;;;;;4993366;28;20917;-91
2023/07/19 03:08:23;;;;;;;12.13;11.00;;;15.90;99.90;;;;;;4993936;28;20411;-91
2023/07/19 03:10:55;;;;;;;11.30;10.00;;;16.10;99.90;;;;;;4993762;28;21087;-90
2023/07/19 03:13:21;;;;;;;13.50;12.20;;;16.50;99.90;;;;;;4993485;28;20454;-91
2023/07/19 03:15:47;;;;;;;11.70;10.50;;;16.20;99.90;;;;;;4994197;28;20849;-92
2023/07/19 03:18:13;;;;;;;14.82;12.40;;;16.50;99.90;;;;;;4993810;28;20458;-91
2023/07/19 03:20:39;;;;;;;11.68;10.50;;;16.40;99.90;;;;;;4993775;28;20431;-91
2023/07/19 03:23:05;;;;;;;12.48;11.27;;;16.40;99.90;;;;;;4993178;28;20658;-92
2023/07/19 03:25:31;;;;;;;12.77;11.47;;;16.20;99.90;;;;;;4993907;28;20517;-92
2023/07/19 03:27:57;;;;;;;13.68;12.23;;;16.10;99.90;;;;;;4993577;28;20407;-90
2023/07/19 03:30:23;;;;;;;12.48;11.27;;;16.10;99.90;;;;;;4993668;28;20403;-90
2023/07/19 03:32:48;;;;;;;13.80;12.35;;;16.00;99.90;;;;;;4993721;28;20402;-90
2023/07/19 03:35:14;;;;;;;13.95;12.55;;;16.00;99.90;;;;;;4993738;28;20419;-92
2023/07/19 03:37:44;;;;;;;15.70;14.20;;;16.10;99.90;;;;;;4993530;28;20506;-90
2023/07/19 03:40:11;;;;;;;14.05;12.75;;;16.30;99.90;;;;;;4993060;28;20498;-90
2023/07/19 03:42:36;;;;;;;12.80;11.60;;;15.90;99.90;;;;;;4994092;28;20496;-91
2023/07/19 03:45:03;;;;;;;14.75;13.25;;;16.20;99.90;;;;;;4993052;28;20544;-92
2023/07/19 03:47:29;;;;;;;15.00;13.40;;;16.00;99.90;;;;;;4993634;28;20396;-90
2023/07/19 03:49:54;;;;;;;14.27;12.87;;;16.10;99.90;;;;;;4993306;28;20465;-91
2023/07/19 03:52:20;;;;;;;13.18;11.90;;;16.30;99.90;;;;;;4993178;28;20407;-92
2023/07/19 03:54:46;;;;;;;13.30;11.97;;;16.10;99.90;;;;;;4994201;28;20399;-91
2023/07/19 03:57:11;;;;;;;13.55;12.02;;;16.10;99.90;;;;;;4993215;28;21060;-92
2023/07/19 03:59:37;;;;;;;11.50;10.30;;;16.10;99.90;;;;;;4993953;28;20415;-91
2023/07/19 04:02:03;;;;;;;13.15;11.73;;;16.20;99.90;;;;;;4993307;28;20423;-91
2023/07/19 04:04:29;;;;;;;12.67;11.40;;;16.20;99.90;;;;;;4993635;28;20504;-91
2023/07/19 04:06:55;;;;;;;11.63;10.60;;;16.40;99.90;;;;;;4993351;28;20411;-91
2023/07/19 04:09:21;;;;;;;13.00;11.73;;;16.80;99.90;;;;;;4993305;28;20905;-91
2023/07/19 04:11:46;;;;;;;11.40;10.33;;;16.40;99.90;;;;;;4993889;28;20414;-91
2023/07/19 04:14:12;;;;;;;10.30;9.30;;;16.50;99.90;;;;;;4992949;28;20501;-91
2023/07/19 04:16:38;;;;;;;9.63;8.73;;;16.30;99.90;;;;;;4993360;28;20534;-92
2023/07/19 04:19:03;;;;;;;8.85;7.95;;;16.50;99.90;;;;;;4992862;28;20400;-91
2023/07/19 04:21:29;;;;;;;8.77;7.70;;;16.20;99.90;;;;;;4993394;28;20411;-91
2023/07/19 04:23:55;;;;;;;9.27;8.05;;;16.40;99.90;;;;;;4993044;28;20407;-91
2023/07/19 04:26:21;;;;;;;8.68;7.82;;;16.30;99.90;;;;;;4993267;28;20890;-91
2023/07/19 04:28:47;;;;;;;8.43;7.38;;;16.70;99.90;;;;;;4993263;28;20403;-91
2023/07/19 04:31:13;;;;;;;9.63;7.30;;;16.40;99.90;;;;;;4992922;28;21152;-91
2023/07/19 04:33:39;;;;;;;7.87;7.07;;;16.50;99.90;;;;;;4993311;28;20402;-90
2023/07/19 04:36:15;;;;;;;8.95;7.20;;;16.50;99.90;;;;;;4992459;28;20462;-92
2023/07/19 04:38:42;;;;;;;8.63;6.60;;;17.10;99.90;;;;;;4993463;28;20442;-90
2023/07/19 04:41:09;;;;;;;7.13;5.55;;;16.50;99.90;;;;;;4992443;28;20404;-91
2023/07/19 04:43:35;;;;;;;8.10;6.20;;;16.70;99.90;;;;;;4992859;28;20475;-90
2023/07/19 04:46:01;;;;;;;6.30;5.73;;;16.70;99.90;;;;;;4993039;28;20498;-91
2023/07/19 04:48:27;;;;;;;7.40;6.33;;;16.50;99.90;;;;;;4992765;28;20408;-90
2023/07/19 04:50:56;;;;;;;6.40;5.70;;;16.40;99.90;;;;;;4992379;28;20687;-94
2023/07/19 04:53:24;;;;;;;6.70;5.60;;;16.20;99.90;;;;;;4994336;28;20427;-93
2023/07/19 04:55:52;;;;;;;7.00;6.10;;;16.50;99.90;;;;;;4993763;28;20427;-91
2023/07/19 04:58:18;;;;;;;6.18;5.25;;;17.00;99.90;;;;;;4992410;28;20427;-91
2023/07/19 05:00:44;;;;;;;6.70;5.50;;;17.00;99.90;;;;;;4992542;28;20837;-92
2023/07/19 05:03:10;;;;;;;6.95;5.28;;;16.90;99.90;;;;;;4996955;28;20490;-92
2023/07/19 05:05:37;;;;;;;8.77;6.13;;;16.80;99.90;;;;;;4990170;28;20407;-93
2023/07/19 05:08:04;;;;;;;10.98;6.50;;;16.60;99.90;;;;;;4985599;28;20411;-93
2023/07/19 05:10:36;;;;;;;7.30;6.00;;;16.60;99.90;;;;;;4982580;28;20421;-93
2023/07/19 05:13:04;;;;;;;7.60;5.67;;;16.60;99.90;;;;;;4989756;28;20408;-92
2023/07/19 05:15:30;;;;;;;8.68;6.35;;;17.00;99.90;;;;;;4997143;28;20411;-92
2023/07/19 05:17:56;;;;;;;7.87;6.10;;;16.50;99.90;;;;;;4996869;28;20417;-93
2023/07/19 05:20:21;;;;;;;8.02;6.35;;;16.80;99.90;;;;;;4997322;28;20471;-92
2023/07/19 05:22:47;;;;;;;9.75;6.20;;;16.70;99.90;;;;;;4995926;28;20411;-93
2023/07/19 05:25:12;;;;;;;8.67;6.23;;;16.90;99.90;;;;;;4996141;28;20887;-92
2023/07/19 05:27:38;;;;;;;8.00;6.03;;;16.80;99.90;;;;;;4995619;28;20762;-94
2023/07/19 05:30:05;;;;;;;9.55;6.50;;;16.80;99.90;;;;;;4997059;28;20925;-93
2023/07/19 05:32:31;;;;;;;9.00;7.10;;;16.60;99.90;;;;;;4979790;28;20403;-92
2023/07/19 05:34:56;;;;;;;9.20;7.30;;;16.60;99.90;;;;;;4995375;28;20403;-92
2023/07/19 05:37:22;;;;;;;8.73;7.30;;;16.60;99.90;;;;;;4994232;28;20442;-93
2023/07/19 05:39:50;;;;;;;9.45;7.65;;;16.80;99.90;;;;;;4995724;28;20510;-92
2023/07/19 05:42:15;;;;;;;9.50;6.97;;;16.80;99.90;;;;;;4995131;28;20439;-92
2023/07/19 05:44:44;;;;;;;11.13;8.30;;;16.70;99.90;;;;;;4999057;28;20414;-93
2023/07/19 05:47:10;;;;;;;10.48;7.30;;;16.70;99.90;;;;;;4998897;28;20407;-93
2023/07/19 05:49:46;;;;;;;10.38;8.10;;;16.50;99.90;;;;;;4999333;28;20926;-92
2023/07/19 05:52:12;;;;;;;8.18;5.95;;;16.10;99.90;;;;;;5000079;28;20446;-93
2023/07/19 05:54:38;;;;;;;8.00;5.70;;;16.60;99.90;;;;;;5002797;28;20777;-93
2023/07/19 05:57:06;;;;;;;9.07;5.13;;;16.70;99.90;;;;;;4999857;28;20435;-92
2023/07/19 05:59:32;;;;;;;8.05;5.40;;;16.40;99.90;;;;;;4994672;28;20568;-92
2023/07/19 06:01:58;;;;;;;7.97;5.23;;;16.40;99.90;;;;;;4995675;28;20461;-92
2023/07/19 06:04:23;;;;;;;8.80;5.10;;;16.50;99.90;;;;;;4994664;28;20411;-92
2023/07/19 06:06:49;;;;;;;6.68;4.68;;;16.50;99.90;;;;;;4994964;28;20408;-93
2023/07/19 06:09:17;;;;;;;7.17;4.30;;;16.80;99.90;;;;;;4993777;28;20423;-93
2023/07/19 06:11:44;;;;;;;6.00;4.40;;;16.80;99.90;;;;;;4994280;28;20430;-90
2023/07/19 06:14:10;;;;;;;7.15;4.07;;;16.60;99.90;;;;;;4994310;28;20469;-93
2023/07/19 06:16:36;;;;;;;7.00;4.13;;;16.90;99.90;;;;;;4977017;28;20504;-91
2023/07/19 06:19:02;;;;;;;6.72;3.72;;;16.30;99.90;;;;;;4975522;28;20900;-92
2023/07/19 06:21:29;;;;;;;6.03;3.53;;;16.60;99.90;;;;;;4974896;28;20420;-92
2023/07/19 06:23:55;;;;;;;6.80;3.57;;;16.90;99.90;;;;;;4975821;28;20401;-93
2023/07/19 06:26:21;;;;;;;4.82;3.50;;;16.80;99.90;;;;;;4978007;28;20412;-92
2023/07/19 06:28:47;;;;;;;6.07;3.60;;;17.00;99.90;;;;;;4979432;28;20419;-94
2023/07/19 06:31:12;;;;;;;6.15;2.80;;;17.10;99.90;;;;;;4976076;28;20417;-92
2023/07/19 06:33:38;;;;;;;5.07;3.00;;;17.40;99.90;;;;;;4974523;28;20421;-92
2023/07/19 06:36:04;;;;;;;3.70;2.27;;;17.10;99.90;;;;;;4990292;28;20437;-93
2023/07/19 06:38:29;;;;;;;6.60;2.17;;;16.90;99.90;;;;;;4996913;28;20415;-93
2023/07/19 06:41:01;;;;;;;3.57;1.90;;;17.10;99.90;;;;;;4994703;28;20411;-93
2023/07/19 06:43:27;;;;;;;3.75;1.48;;;16.70;99.90;;;;;;4994011;28;20455;-93
2023/07/19 06:45:53;;;;;;;4.32;1.58;;;17.50;99.90;;;;;;4995718;28;20450;-93
2023/07/19 06:48:19;;;;;;;3.60;1.73;;;17.10;99.90;;;;;;4994833;28;20407;-93
2023/07/19 06:50:45;;;;;;;5.73;1.93;;;17.40;99.90;;;;;;4993589;28;20438;-92
2023/07/19 06:53:10;;;;;;;4.75;2.15;;;17.50;99.90;;;;;;4995816;28;20407;-93
2023/07/19 06:55:38;;;;;;;4.83;2.47;;;17.30;99.90;;;;;;4994377;28;20400;-92
2023/07/19 06:58:03;;;;;;;5.33;2.47;;;17.20;99.90;;;;;;4994311;28;20411;-93
2023/07/19 07:00:29;;;;;;;5.05;2.38;;;17.60;99.90;;;;;;4993850;28;20410;-92
2023/07/19 07:02:55;;;;;;;5.43;2.53;;;17.40;99.90;;;;;;4994046;28;20494;-94
2023/07/19 07:05:20;;;;;;;4.65;2.33;;;17.40;99.90;;;;;;4995620;28;20414;-93
2023/07/19 07:07:46;;;;;;;4.07;2.28;;;18.00;99.90;;;;;;4994488;28;20783;-93
2023/07/19 07:10:12;;;;;;;4.50;1.93;;;17.80;99.90;;;;;;4993508;28;20494;-93
2023/07/19 07:12:38;;;;;;;3.95;1.60;;;18.20;99.90;;;;;;4993529;28;20454;-91
2023/07/19 07:15:04;;;;;;;4.75;1.63;;;18.20;99.90;;;;;;4994302;28;20439;-92
2023/07/19 07:17:30;;;;;;;3.80;1.35;;;17.90;99.90;;;;;;4992274;28;20457;-90
2023/07/19 07:19:56;;;;;;;4.47;1.27;;;17.90;99.90;;;;;;4992709;28;20744;-93
2023/07/19 07:22:22;;;;;;;3.83;1.27;;;18.00;99.90;;;;;;4992112;28;20425;-93
2023/07/19 07:24:48;;;;;;;4.53;1.38;;;18.10;99.90;;;;;;4991653;28;20426;-92
2023/07/19 07:27:13;;;;;;;3.60;1.30;;;18.20;99.90;;;;;;4994098;28;21060;-92
2023/07/19 07:29:41;;;;;;;3.90;1.03;;;18.70;99.90;;;;;;4993002;28;20402;-92
2023/07/19 07:32:10;;;;;;;3.20;0.95;;;18.40;99.90;;;;;;4993652;28;20926;-92
2023/07/19 07:34:36;;;;;;;2.65;0.70;;;18.60;99.90;;;;;;4993211;28;20407;-92
2023/07/19 07:37:02;;;;;;;3.33;0.73;;;18.80;99.90;;;;;;4994026;28;20938;-92
2023/07/19 07:39:28;;;;;;;2.33;0.83;;;18.40;99.90;;;;;;4993381;28;20415;-91
2023/07/19 07:41:54;;;;;;;2.88;0.85;;;19.00;99.90;;;;;;4993877;28;20794;-93
2023/07/19 07:44:19;;;;;;;3.80;1.00;;;18.80;99.90;;;;;;4994002;28;20541;-92
2023/07/19 07:46:46;;;;;;;2.80;0.60;;;19.10;99.90;;;;;;4993373;28;20434;-92
2023/07/19 07:49:12;;;;;;;2.83;0.70;;;18.70;99.90;;;;;;4993719;28;20501;-91
2023/07/19 07:51:38;;;;;;;3.33;0.60;;;19.10;99.90;;;;;;4993319;28;20496;-92
2023/07/19 07:54:03;;;;;;;2.45;0.70;;;19.40;99.90;;;;;;4993592;28;20461;-93
2023/07/19 07:56:29;;;;;;;3.97;0.70;;;19.50;99.90;;;;;;4993397;28;20435;-93
2023/07/19 07:58:55;;;;;;;5.07;0.85;;;19.60;99.90;;;;;;4994532;28;20413;-92
2023/07/19 08:01:20;;;;;;;3.07;0.70;;;20.10;99.90;;;;;;4993688;28;20928;-92
2023/07/19 08:03:46;;;;;;;4.28;0.77;;;20.20;99.90;;;;;;4993507;28;20469;-92
2023/07/19 08:06:12;;;;;;;3.83;0.83;;;19.90;99.90;;;;;;5010275;28;20754;-92
2023/07/19 08:08:37;;;;;;;3.27;0.73;;;20.50;99.90;;;;;;4992906;28;20409;-92
2023/07/19 08:11:09;;;;;;;2.55;0.70;;;20.50;99.90;;;;;;4993853;28;20439;-91
2023/07/19 08:13:35;;;;;;;2.15;0.60;;;20.50;99.90;;;;;;4993812;28;20403;-91
2023/07/19 08:16:01;;;;;;;5.18;0.80;;;20.20;99.90;;;;;;4993733;28;20438;-93
2023/07/19 08:18:27;;;;;;;3.38;0.70;;;19.80;99.90;;;;;;4992957;28;20411;-91
2023/07/19 08:20:54;;;;;;;2.87;0.70;;;20.50;99.90;;;;;;4993380;28;20407;-92
2023/07/19 08:23:19;;;;;;;3.47;0.70;;;20.50;99.90;;;;;;4993809;28;20419;-92
2023/07/19 08:25:45;;;;;;;4.32;0.65;;;20.20;99.90;;;;;;4992540;28;20408;-92
2023/07/19 08:28:10;;;;;;;3.22;0.60;;;20.20;99.90;;;;;;4993724;28;20407;-90
2023/07/19 08:30:36;;;;;;;3.10;0.60;;;20.50;99.90;;;;;;4992581;28;20497;-92
2023/07/19 08:33:08;;;;;;;3.35;0.63;;;20.10;99.90;;;;;;4993349;28;20461;-93
2023/07/19 08:35:33;;;;;;;5.03;0.70;;;20.00;99.90;;;;;;4993655;28;20442;-92
2023/07/19 08:37:59;;;;;;;3.08;0.55;;;20.10;99.90;;;;;;4998366;28;20426;-92
2023/07/19 08:40:30;;;;;;;3.03;0.53;;;20.20;99.90;;;;;;4998448;28;20469;-92
2023/07/19 08:42:56;;;;;;;3.25;0.60;;;20.30;99.90;;;;;;4996837;28;20486;-92
2023/07/19 08:45:23;;;;;;;3.37;0.50;;;20.20;99.90;;;;;;4998208;28;20431;-92
2023/07/19 08:47:50;;;;;;;2.20;0.45;;;20.70;99.90;;;;;;4996256;28;20402;-92
2023/07/19 08:50:17;;;;;;;2.80;0.50;;;20.50;99.90;;;;;;4997955;28;20438;-93
2023/07/19 08:52:43;;;;;;;3.80;0.60;;;20.70;99.90;;;;;;4996198;28;20894;-92
2023/07/19 08:55:09;;;;;;;4.40;0.70;;;20.80;99.90;;;;;;4996647;28;20476;-92
2023/07/19 08:57:43;;;;;;;3.47;0.60;;;20.40;99.90;;;;;;4996581;28;20426;-92
2023/07/19 09:00:09;;;;;;;3.87;0.70;;;20.40;99.90;;;;;;4995941;28;20786;-93
2023/07/19 09:02:35;;;;;;;4.15;0.90;;;20.00;99.90;;;;;;4996685;28;20418;-93
2023/07/19 09:05:10;;;;;;;3.37;0.90;;;20.20;99.90;;;;;;4996456;28;20407;-92
2023/07/19 09:07:38;;;;;;;6.22;0.70;;;20.70;99.90;;;;;;4997564;28;20454;-93
2023/07/19 09:10:09;;;;;;;3.15;0.80;;;21.30;99.90;;;;;;4996308;28;20415;-93
2023/07/19 09:12:40;;;;;;;3.70;1.13;;;21.20;99.90;;;;;;4997239;28;20541;-92
2023/07/19 09:15:07;;;;;;;4.35;1.25;;;21.30;99.90;;;;;;4996556;28;20411;-93
2023/07/19 09:17:39;;;;;;;4.10;0.80;;;20.80;99.90;;;;;;4996131;28;20437;-91
2023/07/19 09:20:06;;;;;;;3.00;0.80;;;20.60;99.90;;;;;;4996534;28;20449;-94
2023/07/19 09:22:34;;;;;;;2.67;0.45;;;20.70;99.90;;;;;;4995798;28;20762;-92
2023/07/19 09:25:03;;;;;;;4.03;0.77;;;21.20;99.90;;;;;;4996318;28;20764;-92
2023/07/19 09:27:30;;;;;;;3.08;0.65;;;21.30;99.90;;;;;;4996067;28;20407;-93
2023/07/19 09:29:55;;;;;;;3.43;0.73;;;21.30;99.60;;;;;;4996659;28;20411;-92
2023/07/19 09:32:24;;;;;;;4.43;1.00;;;21.40;99.90;;;;;;4996741;28;20411;-92
2023/07/19 09:34:54;;;;;;;4.07;0.80;;;21.30;98.70;;;;;;4995401;28;20407;-92
2023/07/19 09:37:25;;;;;;;2.73;0.80;;;21.30;99.90;;;;;;4996715;28;20434;-92
2023/07/19 09:39:52;;;;;;;4.40;1.10;;;21.30;99.90;;;;;;4994683;28;20466;-94
2023/07/19 09:42:19;;;;;;;3.72;0.80;;;21.50;99.90;;;;;;4995733;28;20410;-92
2023/07/19 09:44:48;;;;;;;3.60;0.70;;;21.60;99.90;;;;;;4996270;28;20736;-92
2023/07/19 09:47:15;;;;;;;2.77;0.60;;;21.30;99.90;;;;;;4995432;28;20446;-92
2023/07/19 09:49:42;;;;;;;3.40;0.82;;;21.70;99.90;;;;;;4996607;28;20967;-92
2023/07/19 09:52:12;;;;;;;2.53;0.60;;;21.90;99.90;;;;;;4995272;28;20414;-92
2023/07/19 09:54:39;;;;;;;2.58;0.57;;;21.30;99.90;;;;;;4995888;28;20420;-91
2023/07/19 09:57:05;;;;;;;4.38;0.65;;;21.40;99.90;;;;;;4995244;28;20453;-92
2023/07/19 09:59:43;;;;;;;3.30;0.60;;;21.40;99.90;;;;;;4995816;28;20403;-91
2023/07/19 10:02:10;;;;;;;3.83;0.70;;;21.30;99.40;;;;;;4995917;28;20449;-92
2023/07/19 10:04:38;;;;;;;3.20;0.80;;;21.50;99.90;;;;;;4995789;28;20766;-92
2023/07/19 10:07:17;;;;;;;2.50;0.80;;;21.20;99.90;;;;;;4995844;28;20404;-92
2023/07/19 10:09:44;;;;;;;3.75;0.70;;;20.90;99.90;;;;;;4994926;28;20426;-92
2023/07/19 10:12:16;;;;;;;2.63;0.70;;;20.90;99.90;;;;;;4995379;28;20534;-91
2023/07/19 10:14:52;;;;;;;3.75;0.63;;;20.60;99.90;;;;;;4995315;28;20419;-91
2023/07/19 10:17:17;;;;;;;3.10;0.60;;;20.80;99.90;;;;;;4995425;28;20937;-92
2023/07/19 10:20:02;;;;;;;2.63;0.50;;;20.90;99.90;;;;;;4996223;28;20411;-92
2023/07/19 10:22:50;;;;;;;2.38;0.50;;;21.10;99.90;;;;;;4994961;28;20435;-92
2023/07/19 10:25:31;;;;;;;2.58;0.50;;;21.30;99.90;;;;;;4995640;28;21008;-94
2023/07/19 10:28:08;;;;;;;1.85;0.50;;;21.30;99.90;;;;;;4995670;28;20411;-91
2023/07/19 10:30:43;;;;;;;3.37;0.57;;;22.00;99.90;;;;;;4995467;28;20419;-92
2023/07/19 10:33:17;;;;;;;2.90;0.50;;;21.90;99.90;;;;;;4996138;28;20415;-93
2023/07/19 10:35:43;;;;;;;2.80;0.50;;;21.80;99.40;;;;;;4994208;28;20771;-92
2023/07/19 10:38:30;;;;;;;1.92;0.40;;;21.60;99.50;;;;;;4995137;28;20403;-92
2023/07/19 10:41:07;;;;;;;2.37;0.40;;;21.50;99.90;;;;;;4995048;28;20415;-92
2023/07/19 10:43:34;;;;;;;2.17;0.40;;;21.70;99.90;;;;;;4995298;28;20471;-92
2023/07/19 10:46:03;;;;;;;2.13;0.50;;;22.30;97.60;;;;;;4995754;28;20414;-92
2023/07/19 10:48:33;;;;;;;3.47;0.50;;;22.60;99.90;;;;;;4994523;28;20478;-92
2023/07/19 10:51:08;;;;;;;2.45;0.50;;;23.20;96.50;;;;;;4994232;28;20407;-92
2023/07/19 10:54:00;;;;;;;2.50;0.40;;;23.90;88.50;;;;;;4993970;28;20506;-92
2023/07/19 10:56:27;;;;;;;2.65;0.40;;;24.10;77.00;;;;;;4991294;28;20512;-93
2023/07/19 10:59:00;;;;;;;2.08;0.35;;;24.10;83.70;;;;;;4994626;28;20462;-92
2023/07/19 11:01:29;;;;;;;2.50;0.47;;;24.90;74.00;;;;;;4993964;28;20443;-92
2023/07/19 11:04:02;;;;;;;2.92;0.45;;;24.90;67.80;;;;;;4994899;28;20410;-92
2023/07/19 11:06:28;;;;;;;2.35;0.40;;;24.70;67.90;;;;;;4993673;28;20919;-92
2023/07/19 11:09:03;;;;;;;2.40;0.40;;;24.40;66.70;;;;;;4994834;28;20421;-92
2023/07/19 11:11:29;;;;;;;2.25;0.50;;;23.90;71.10;;;;;;4993330;28;20422;-90
2023/07/19 11:13:54;;;;;;;1.77;0.40;;;23.30;69.70;;;;;;4993078;28;20894;-91
2023/07/19 11:16:21;;;;;;;2.60;0.40;;;23.60;86.70;;;;;;4992806;28;20472;-88
2023/07/19 11:18:46;;;;;;;2.20;0.50;;;23.90;85.50;;;;;;4992577;28;20736;-91
2023/07/19 11:21:23;;;;;;;2.30;0.30;;;24.20;80.60;;;;;;4986981;28;20413;-88
2023/07/19 11:23:48;;;;;;;2.45;0.50;;;24.30;70.80;;;;;;4988566;28;20420;-89
2023/07/19 11:26:14;;;;;;;1.70;0.40;;;23.90;69.00;;;;;;5000833;28;20802;-89
2023/07/19 11:29:00;;;;;;;2.47;0.40;;;23.60;72.00;;;;;;4997359;28;20420;-88
2023/07/19 11:31:38;;;;;;;1.65;0.30;;;23.50;75.50;;;;;;5008247;28;20411;-89
2023/07/19 11:34:16;;;;;;;1.65;0.35;;;23.60;88.00;;;;;;4993116;28;20758;-88
2023/07/19 11:36:45;;;;;;;2.72;0.40;;;24.10;79.50;;;;;;4991679;28;20431;-87
2023/07/19 11:39:15;;;;;;;2.97;0.43;;;24.20;66.10;;;;;;5009264;28;20457;-90
2023/07/19 11:41:45;;;;;;;1.73;0.50;;;23.50;72.90;;;;;;4992413;28;20863;-90
2023/07/19 11:44:17;;;;;;;1.85;0.40;;;23.30;70.10;;;;;;4992475;28;20408;-90
2023/07/19 11:46:44;;;;;;;1.45;0.30;;;23.60;92.20;;;;;;4992907;28;20997;-88
2023/07/19 11:49:09;;;;;;;2.13;0.38;;;24.30;80.00;;;;;;4991959;28;20419;-89
2023/07/19 11:51:36;;;;;;;1.25;0.30;;;25.10;79.80;;;;;;5008903;28;20400;-92
2023/07/19 11:54:03;;;;;;;3.53;0.40;;;25.50;63.10;;;;;;4992041;28;20461;-90
2023/07/19 11:56:29;;;;;;;1.47;0.30;;;25.60;66.40;;;;;;4991806;28;20471;-89
2023/07/19 11:58:56;;;;;;;2.80;0.40;;;25.40;60.90;;;;;;4991920;28;20403;-89
2023/07/19 12:01:21;;;;;;;1.75;0.22;;;24.80;57.50;;;;;;4991707;28;20413;-89
2023/07/19 12:03:48;;;;;;;2.73;0.30;;;24.30;62.50;;;;;;4992931;28;20418;-88
2023/07/19 12:06:14;;;;;;;1.48;0.40;;;24.00;65.10;;;;;;4991778;28;20407;-89
2023/07/19 12:08:49;;;;;;;2.50;0.60;;;23.90;69.40;;;;;;5008776;28;20770;-88
2023/07/19 12:11:14;;;;;;;1.45;0.30;;;23.60;62.60;;;;;;5009804;28;20473;-90
2023/07/19 12:13:40;;;;;;;1.98;0.30;;;23.40;73.50;;;;;;4996312;28;20913;-89
2023/07/19 12:16:06;;;;;;;1.90;0.40;;;23.50;70.20;;;;;;4996083;28;20438;-90
2023/07/19 12:18:31;;;;;;;2.55;0.30;;;22.90;83.20;;;;;;4995820;28;20403;-89
2023/07/19 12:20:57;;;;;;;2.60;0.30;;;22.80;77.40;;;;;;4997286;28;20936;-90
2023/07/19 12:23:23;;;;;;;2.30;0.30;;;22.90;77.20;;;;;;4995955;28;20414;-90
2023/07/19 12:25:50;;;;;;;1.53;0.30;;;23.30;76.60;;;;;;4996150;28;20494;-90
2023/07/19 12:28:16;;;;;;;2.53;0.40;;;23.00;69.20;;;;;;4995532;28;20416;-89
2023/07/19 12:30:42;;;;;;;1.88;0.38;;;23.10;77.30;;;;;;4995836;28;20406;-89
2023/07/19 12:33:08;;;;;;;2.78;0.40;;;23.50;81.20;;;;;;4995168;28;20443;-88
2023/07/19 12:35:36;;;;;;;2.95;0.32;;;24.00;71.80;;;;;;4995779;28;20411;-89
2023/07/19 12:38:01;;;;;;;1.58;0.20;;;24.50;72.50;;;;;;4995789;28;20445;-89
2023/07/19 12:40:27;;;;;;;1.60;0.30;;;25.40;67.40;;;;;;4988643;28;20498;-90
2023/07/19 12:42:53;;;;;;;1.60;0.40;;;25.70;59.30;;;;;;4975806;28;20756;-90